sensor_id;sensor_type;location;lat;lon;timestamp;P1;durP1;ratioP1;P2;durP2;ratioP2
9830;SDS011;4954;48.476;8.168;2024-03-22T00:01:53;56.00;;;39.10;;
9830;SDS011;4954;48.476;8.168;2024-03-22T00:04:20;56.03;;;39.47;;
9830;SDS011;4954;48.476;8.168;2024-03-22T00:06:46;55.93;;;39.20;;
9830;SDS011;4954;48.476;8.168;2024-03-22T00:09:14;58.10;;;39.67;;
9830;SDS011;4954;48.476;8.168;2024-03-22T00:11:42;56.60;;;39.27;;
9830;SDS011;4954;48.476;8.168;2024-03-22T00:14:09;50.30;;;37.90;;
9830;SDS011;4954;48.476;8.168;2024-03-22T00:16:36;64.40;;;40.87;;
9830;SDS011;4954;48.476;8.168;2024-03-22T00:19:02;49.17;;;37.27;;
9830;SDS011;4954;48.476;8.168;2024-03-22T00:21:28;50.07;;;37.50;;
9830;SDS011;4954;48.476;8.168;2024-03-22T00:23:55;50.63;;;37.40;;
9830;SDS011;4954;48.476;8.168;2024-03-22T00:26:22;48.67;;;37.27;;
9830;SDS011;4954;48.476;8.168;2024-03-22T00:28:47;50.47;;;37.77;;
9830;SDS011;4954;48.476;8.168;2024-03-22T00:31:14;49.90;;;37.37;;
9830;SDS011;4954;48.476;8.168;2024-03-22T00:33:39;48.00;;;36.83;;
9830;SDS011;4954;48.476;8.168;2024-03-22T00:36:05;48.87;;;36.33;;
9830;SDS011;4954;48.476;8.168;2024-03-22T00:38:31;50.30;;;37.60;;
9830;SDS011;4954;48.476;8.168;2024-03-22T00:40:56;51.83;;;38.13;;
9830;SDS011;4954;48.476;8.168;2024-03-22T00:43:22;50.10;;;37.30;;
9830;SDS011;4954;48.476;8.168;2024-03-22T00:45:48;47.70;;;36.57;;
9830;SDS011;4954;48.476;8.168;2024-03-22T00:48:13;47.27;;;36.57;;
9830;SDS011;4954;48.476;8.168;2024-03-22T00:50:39;48.47;;;37.03;;
9830;SDS011;4954;48.476;8.168;2024-03-22T00:53:05;48.77;;;36.90;;
9830;SDS011;4954;48.476;8.168;2024-03-22T00:55:32;52.90;;;37.40;;
9830;SDS011;4954;48.476;8.168;2024-03-22T00:57:58;51.37;;;37.87;;
9830;SDS011;4954;48.476;8.168;2024-03-22T01:00:24;49.27;;;37.43;;
9830;SDS011;4954;48.476;8.168;2024-03-22T01:02:50;51.90;;;36.87;;
9830;SDS011;4954;48.476;8.168;2024-03-22T01:05:15;49.03;;;36.93;;
9830;SDS011;4954;48.476;8.168;2024-03-22T01:07:44;46.80;;;36.03;;
9830;SDS011;4954;48.476;8.168;2024-03-22T01:10:10;49.80;;;37.00;;
9830;SDS011;4954;48.476;8.168;2024-03-22T01:12:36;44.93;;;35.57;;
9830;SDS011;4954;48.476;8.168;2024-03-22T01:15:04;51.87;;;36.30;;
9830;SDS011;4954;48.476;8.168;2024-03-22T01:17:30;42.57;;;35.73;;
9830;SDS011;4954;48.476;8.168;2024-03-22T01:19:56;50.07;;;36.67;;
9830;SDS011;4954;48.476;8.168;2024-03-22T01:22:21;51.97;;;37.93;;
9830;SDS011;4954;48.476;8.168;2024-03-22T01:24:48;53.57;;;38.53;;
9830;SDS011;4954;48.476;8.168;2024-03-22T01:27:14;47.70;;;36.80;;
9830;SDS011;4954;48.476;8.168;2024-03-22T01:29:39;59.17;;;38.33;;
9830;SDS011;4954;48.476;8.168;2024-03-22T01:32:05;45.03;;;35.77;;
9830;SDS011;4954;48.476;8.168;2024-03-22T01:34:30;48.50;;;36.27;;
9830;SDS011;4954;48.476;8.168;2024-03-22T01:36:56;46.63;;;36.20;;
9830;SDS011;4954;48.476;8.168;2024-03-22T01:39:22;50.97;;;37.70;;
9830;SDS011;4954;48.476;8.168;2024-03-22T01:41:48;48.87;;;36.67;;
9830;SDS011;4954;48.476;8.168;2024-03-22T01:44:14;44.30;;;36.00;;
9830;SDS011;4954;48.476;8.168;2024-03-22T01:46:40;51.77;;;37.27;;
9830;SDS011;4954;48.476;8.168;2024-03-22T01:49:11;50.50;;;36.43;;
9830;SDS011;4954;48.476;8.168;2024-03-22T01:51:40;46.77;;;35.93;;
9830;SDS011;4954;48.476;8.168;2024-03-22T01:54:08;48.07;;;35.97;;
9830;SDS011;4954;48.476;8.168;2024-03-22T01:56:38;46.93;;;36.00;;
9830;SDS011;4954;48.476;8.168;2024-03-22T01:59:05;46.10;;;36.07;;
9830;SDS011;4954;48.476;8.168;2024-03-22T02:01:31;54.07;;;37.23;;
9830;SDS011;4954;48.476;8.168;2024-03-22T02:03:58;51.10;;;36.77;;
9830;SDS011;4954;48.476;8.168;2024-03-22T02:06:24;49.03;;;36.87;;
9830;SDS011;4954;48.476;8.168;2024-03-22T02:08:49;51.60;;;37.80;;
9830;SDS011;4954;48.476;8.168;2024-03-22T02:11:15;44.97;;;35.37;;
9830;SDS011;4954;48.476;8.168;2024-03-22T02:13:40;52.83;;;37.93;;
9830;SDS011;4954;48.476;8.168;2024-03-22T02:16:08;47.57;;;36.27;;
9830;SDS011;4954;48.476;8.168;2024-03-22T02:18:33;47.80;;;35.37;;
9830;SDS011;4954;48.476;8.168;2024-03-22T02:20:59;47.07;;;36.17;;
9830;SDS011;4954;48.476;8.168;2024-03-22T02:23:37;52.60;;;37.03;;
9830;SDS011;4954;48.476;8.168;2024-03-22T02:26:05;52.63;;;37.13;;
9830;SDS011;4954;48.476;8.168;2024-03-22T02:28:32;53.63;;;38.27;;
9830;SDS011;4954;48.476;8.168;2024-03-22T02:30:59;47.63;;;36.10;;
9830;SDS011;4954;48.476;8.168;2024-03-22T02:33:25;47.13;;;36.00;;
9830;SDS011;4954;48.476;8.168;2024-03-22T02:35:51;40.17;;;34.27;;
9830;SDS011;4954;48.476;8.168;2024-03-22T02:38:17;46.33;;;35.63;;
9830;SDS011;4954;48.476;8.168;2024-03-22T02:40:44;46.73;;;36.67;;
9830;SDS011;4954;48.476;8.168;2024-03-22T02:43:11;48.63;;;36.57;;
9830;SDS011;4954;48.476;8.168;2024-03-22T02:45:37;49.00;;;36.17;;
9830;SDS011;4954;48.476;8.168;2024-03-22T02:48:03;45.97;;;36.03;;
9830;SDS011;4954;48.476;8.168;2024-03-22T02:50:33;40.87;;;34.73;;
9830;SDS011;4954;48.476;8.168;2024-03-22T02:53:00;49.67;;;36.53;;
9830;SDS011;4954;48.476;8.168;2024-03-22T02:55:26;46.47;;;35.93;;
9830;SDS011;4954;48.476;8.168;2024-03-22T02:57:52;42.13;;;34.63;;
9830;SDS011;4954;48.476;8.168;2024-03-22T03:00:18;48.83;;;36.30;;
9830;SDS011;4954;48.476;8.168;2024-03-22T03:02:43;47.07;;;36.47;;
9830;SDS011;4954;48.476;8.168;2024-03-22T03:05:10;52.10;;;37.97;;
9830;SDS011;4954;48.476;8.168;2024-03-22T03:07:36;47.60;;;36.60;;
9830;SDS011;4954;48.476;8.168;2024-03-22T03:10:01;48.63;;;36.90;;
9830;SDS011;4954;48.476;8.168;2024-03-22T03:12:27;45.73;;;36.27;;
9830;SDS011;4954;48.476;8.168;2024-03-22T03:14:52;51.97;;;37.73;;
9830;SDS011;4954;48.476;8.168;2024-03-22T03:17:18;49.97;;;37.50;;
9830;SDS011;4954;48.476;8.168;2024-03-22T03:19:44;66.73;;;40.80;;
9830;SDS011;4954;48.476;8.168;2024-03-22T03:22:10;47.63;;;37.30;;
9830;SDS011;4954;48.476;8.168;2024-03-22T03:24:35;43.47;;;35.77;;
9830;SDS011;4954;48.476;8.168;2024-03-22T03:27:01;54.80;;;38.53;;
9830;SDS011;4954;48.476;8.168;2024-03-22T03:29:27;48.27;;;36.67;;
9830;SDS011;4954;48.476;8.168;2024-03-22T03:31:53;49.07;;;36.67;;
9830;SDS011;4954;48.476;8.168;2024-03-22T03:34:18;53.57;;;38.17;;
9830;SDS011;4954;48.476;8.168;2024-03-22T03:36:45;47.10;;;36.53;;
9830;SDS011;4954;48.476;8.168;2024-03-22T03:39:11;53.77;;;38.00;;
9830;SDS011;4954;48.476;8.168;2024-03-22T03:41:37;48.27;;;36.67;;
9830;SDS011;4954;48.476;8.168;2024-03-22T03:44:03;52.73;;;37.97;;
9830;SDS011;4954;48.476;8.168;2024-03-22T03:46:28;49.20;;;36.37;;
9830;SDS011;4954;48.476;8.168;2024-03-22T03:48:54;50.20;;;37.50;;
9830;SDS011;4954;48.476;8.168;2024-03-22T03:51:19;49.70;;;36.90;;
9830;SDS011;4954;48.476;8.168;2024-03-22T03:53:45;41.13;;;34.47;;
9830;SDS011;4954;48.476;8.168;2024-03-22T03:56:10;55.30;;;37.40;;
9830;SDS011;4954;48.476;8.168;2024-03-22T03:58:36;46.93;;;36.57;;
9830;SDS011;4954;48.476;8.168;2024-03-22T04:01:08;49.93;;;36.73;;
9830;SDS011;4954;48.476;8.168;2024-03-22T04:03:34;49.47;;;37.20;;
9830;SDS011;4954;48.476;8.168;2024-03-22T04:06:00;53.27;;;38.20;;
9830;SDS011;4954;48.476;8.168;2024-03-22T04:08:26;48.70;;;36.37;;
9830;SDS011;4954;48.476;8.168;2024-03-22T04:10:56;52.90;;;38.47;;
9830;SDS011;4954;48.476;8.168;2024-03-22T04:13:22;50.63;;;37.10;;
9830;SDS011;4954;48.476;8.168;2024-03-22T04:15:49;50.30;;;36.97;;
9830;SDS011;4954;48.476;8.168;2024-03-22T04:18:14;45.67;;;35.97;;
9830;SDS011;4954;48.476;8.168;2024-03-22T04:20:40;49.20;;;37.47;;
9830;SDS011;4954;48.476;8.168;2024-03-22T04:23:05;48.43;;;36.47;;
9830;SDS011;4954;48.476;8.168;2024-03-22T04:25:31;48.60;;;37.27;;
9830;SDS011;4954;48.476;8.168;2024-03-22T04:27:56;44.90;;;35.60;;
9830;SDS011;4954;48.476;8.168;2024-03-22T04:30:22;46.83;;;36.17;;
9830;SDS011;4954;48.476;8.168;2024-03-22T04:32:47;48.10;;;36.50;;
9830;SDS011;4954;48.476;8.168;2024-03-22T04:35:13;52.60;;;38.63;;
9830;SDS011;4954;48.476;8.168;2024-03-22T04:37:39;50.77;;;37.10;;
9830;SDS011;4954;48.476;8.168;2024-03-22T04:40:04;49.67;;;37.17;;
9830;SDS011;4954;48.476;8.168;2024-03-22T04:42:31;53.43;;;38.27;;
9830;SDS011;4954;48.476;8.168;2024-03-22T04:44:56;49.50;;;37.60;;
9830;SDS011;4954;48.476;8.168;2024-03-22T04:47:22;43.37;;;34.73;;
9830;SDS011;4954;48.476;8.168;2024-03-22T04:49:48;62.37;;;40.50;;
9830;SDS011;4954;48.476;8.168;2024-03-22T04:52:14;50.63;;;38.23;;
9830;SDS011;4954;48.476;8.168;2024-03-22T04:54:39;53.93;;;39.13;;
9830;SDS011;4954;48.476;8.168;2024-03-22T04:57:05;46.60;;;36.30;;
9830;SDS011;4954;48.476;8.168;2024-03-22T04:59:30;52.40;;;38.03;;
9830;SDS011;4954;48.476;8.168;2024-03-22T05:01:56;56.53;;;39.37;;
9830;SDS011;4954;48.476;8.168;2024-03-22T05:04:24;43.47;;;35.20;;
9830;SDS011;4954;48.476;8.168;2024-03-22T05:06:50;45.50;;;35.63;;
9830;SDS011;4954;48.476;8.168;2024-03-22T05:09:16;52.77;;;37.83;;
9830;SDS011;4954;48.476;8.168;2024-03-22T05:11:42;41.73;;;33.93;;
9830;SDS011;4954;48.476;8.168;2024-03-22T05:14:07;46.47;;;36.40;;
9830;SDS011;4954;48.476;8.168;2024-03-22T05:16:33;49.13;;;36.50;;
9830;SDS011;4954;48.476;8.168;2024-03-22T05:19:00;49.93;;;37.23;;
9830;SDS011;4954;48.476;8.168;2024-03-22T05:21:25;53.30;;;38.43;;
9830;SDS011;4954;48.476;8.168;2024-03-22T05:23:51;56.10;;;39.03;;
9830;SDS011;4954;48.476;8.168;2024-03-22T05:26:16;49.40;;;36.80;;
9830;SDS011;4954;48.476;8.168;2024-03-22T05:28:45;53.57;;;37.40;;
9830;SDS011;4954;48.476;8.168;2024-03-22T05:31:11;60.00;;;38.70;;
9830;SDS011;4954;48.476;8.168;2024-03-22T05:33:37;49.93;;;37.30;;
9830;SDS011;4954;48.476;8.168;2024-03-22T05:36:08;49.83;;;39.30;;
9830;SDS011;4954;48.476;8.168;2024-03-22T05:38:34;53.43;;;37.33;;
9830;SDS011;4954;48.476;8.168;2024-03-22T05:41:03;54.37;;;38.67;;
9830;SDS011;4954;48.476;8.168;2024-03-22T05:43:29;52.70;;;38.30;;
9830;SDS011;4954;48.476;8.168;2024-03-22T05:45:55;61.43;;;39.83;;
9830;SDS011;4954;48.476;8.168;2024-03-22T05:48:20;48.60;;;36.10;;
9830;SDS011;4954;48.476;8.168;2024-03-22T05:50:46;64.80;;;41.67;;
9830;SDS011;4954;48.476;8.168;2024-03-22T05:53:11;64.27;;;41.53;;
9830;SDS011;4954;48.476;8.168;2024-03-22T05:55:37;56.50;;;39.73;;
9830;SDS011;4954;48.476;8.168;2024-03-22T05:58:03;50.90;;;37.37;;
9830;SDS011;4954;48.476;8.168;2024-03-22T06:00:29;53.10;;;38.33;;
9830;SDS011;4954;48.476;8.168;2024-03-22T06:02:55;48.63;;;36.23;;
9830;SDS011;4954;48.476;8.168;2024-03-22T06:05:21;76.33;;;44.53;;
9830;SDS011;4954;48.476;8.168;2024-03-22T06:07:46;52.40;;;37.17;;
9830;SDS011;4954;48.476;8.168;2024-03-22T06:10:12;48.60;;;36.73;;
9830;SDS011;4954;48.476;8.168;2024-03-22T06:12:38;48.87;;;36.90;;
9830;SDS011;4954;48.476;8.168;2024-03-22T06:15:03;50.57;;;36.77;;
9830;SDS011;4954;48.476;8.168;2024-03-22T06:17:31;56.90;;;39.47;;
9830;SDS011;4954;48.476;8.168;2024-03-22T06:19:59;54.97;;;38.93;;
9830;SDS011;4954;48.476;8.168;2024-03-22T06:22:25;50.77;;;38.63;;
9830;SDS011;4954;48.476;8.168;2024-03-22T06:24:50;56.00;;;39.13;;
9830;SDS011;4954;48.476;8.168;2024-03-22T06:27:16;48.80;;;37.67;;
9830;SDS011;4954;48.476;8.168;2024-03-22T06:29:42;55.83;;;38.83;;
9830;SDS011;4954;48.476;8.168;2024-03-22T06:32:07;49.27;;;37.70;;
9830;SDS011;4954;48.476;8.168;2024-03-22T06:34:33;52.10;;;38.83;;
9830;SDS011;4954;48.476;8.168;2024-03-22T06:36:58;52.10;;;39.07;;
9830;SDS011;4954;48.476;8.168;2024-03-22T06:39:24;57.45;;;42.10;;
9830;SDS011;4954;48.476;8.168;2024-03-22T06:41:50;57.35;;;42.25;;
9830;SDS011;4954;48.476;8.168;2024-03-22T06:44:15;54.30;;;43.53;;
9830;SDS011;4954;48.476;8.168;2024-03-22T06:46:41;62.20;;;45.40;;
9830;SDS011;4954;48.476;8.168;2024-03-22T06:49:06;57.83;;;44.60;;
9830;SDS011;4954;48.476;8.168;2024-03-22T06:51:32;62.40;;;45.25;;
9830;SDS011;4954;48.476;8.168;2024-03-22T06:53:57;56.22;;;43.00;;
9830;SDS011;4954;48.476;8.168;2024-03-22T06:56:23;67.78;;;45.30;;
9830;SDS011;4954;48.476;8.168;2024-03-22T06:58:48;73.07;;;47.75;;
9830;SDS011;4954;48.476;8.168;2024-03-22T07:01:14;80.38;;;48.10;;
9830;SDS011;4954;48.476;8.168;2024-03-22T07:03:40;76.63;;;45.70;;
9830;SDS011;4954;48.476;8.168;2024-03-22T07:06:06;67.20;;;44.08;;
9830;SDS011;4954;48.476;8.168;2024-03-22T07:08:34;73.22;;;46.35;;
9830;SDS011;4954;48.476;8.168;2024-03-22T07:10:59;72.10;;;45.97;;
9830;SDS011;4954;48.476;8.168;2024-03-22T07:13:29;63.88;;;44.75;;
9830;SDS011;4954;48.476;8.168;2024-03-22T07:15:55;61.00;;;45.22;;
9830;SDS011;4954;48.476;8.168;2024-03-22T07:18:20;69.68;;;46.10;;
9830;SDS011;4954;48.476;8.168;2024-03-22T07:20:46;61.28;;;45.15;;
9830;SDS011;4954;48.476;8.168;2024-03-22T07:23:12;63.33;;;45.38;;
9830;SDS011;4954;48.476;8.168;2024-03-22T07:25:38;63.17;;;45.65;;
9830;SDS011;4954;48.476;8.168;2024-03-22T07:28:03;55.53;;;45.00;;
9830;SDS011;4954;48.476;8.168;2024-03-22T07:30:29;61.53;;;46.88;;
9830;SDS011;4954;48.476;8.168;2024-03-22T07:32:55;60.50;;;46.50;;
9830;SDS011;4954;48.476;8.168;2024-03-22T07:35:20;48.58;;;43.33;;
9830;SDS011;4954;48.476;8.168;2024-03-22T07:37:46;73.03;;;50.60;;
9830;SDS011;4954;48.476;8.168;2024-03-22T07:40:11;60.70;;;48.20;;
9830;SDS011;4954;48.476;8.168;2024-03-22T07:42:37;74.22;;;54.22;;
9830;SDS011;4954;48.476;8.168;2024-03-22T07:45:02;67.43;;;53.13;;
9830;SDS011;4954;48.476;8.168;2024-03-22T07:47:29;58.08;;;51.78;;
9830;SDS011;4954;48.476;8.168;2024-03-22T07:49:55;78.55;;;58.40;;
9830;SDS011;4954;48.476;8.168;2024-03-22T07:52:20;64.45;;;53.13;;
9830;SDS011;4954;48.476;8.168;2024-03-22T07:54:46;85.75;;;61.50;;
9830;SDS011;4954;48.476;8.168;2024-03-22T07:57:11;58.67;;;52.33;;
9830;SDS011;4954;48.476;8.168;2024-03-22T07:59:37;73.03;;;56.40;;
9830;SDS011;4954;48.476;8.168;2024-03-22T08:02:03;66.43;;;56.30;;
9830;SDS011;4954;48.476;8.168;2024-03-22T08:04:29;64.90;;;55.42;;
9830;SDS011;4954;48.476;8.168;2024-03-22T08:06:57;60.70;;;54.10;;
9830;SDS011;4954;48.476;8.168;2024-03-22T08:09:23;62.90;;;54.60;;
9830;SDS011;4954;48.476;8.168;2024-03-22T08:11:48;70.93;;;55.80;;
9830;SDS011;4954;48.476;8.168;2024-03-22T08:14:14;74.78;;;59.08;;
9830;SDS011;4954;48.476;8.168;2024-03-22T08:16:41;64.82;;;54.70;;
9830;SDS011;4954;48.476;8.168;2024-03-22T08:19:07;63.47;;;56.25;;
9830;SDS011;4954;48.476;8.168;2024-03-22T08:21:33;63.38;;;56.58;;
9830;SDS011;4954;48.476;8.168;2024-03-22T08:23:59;81.53;;;60.75;;
9830;SDS011;4954;48.476;8.168;2024-03-22T08:26:25;63.38;;;55.38;;
9830;SDS011;4954;48.476;8.168;2024-03-22T08:28:50;62.10;;;54.53;;
9830;SDS011;4954;48.476;8.168;2024-03-22T08:31:16;62.35;;;54.25;;
9830;SDS011;4954;48.476;8.168;2024-03-22T08:33:42;59.78;;;53.53;;
9830;SDS011;4954;48.476;8.168;2024-03-22T08:36:08;65.05;;;57.97;;
9830;SDS011;4954;48.476;8.168;2024-03-22T08:38:33;71.15;;;61.20;;
9830;SDS011;4954;48.476;8.168;2024-03-22T08:40:59;67.50;;;57.75;;
9830;SDS011;4954;48.476;8.168;2024-03-22T08:43:25;61.63;;;55.22;;
9830;SDS011;4954;48.476;8.168;2024-03-22T08:45:52;70.57;;;59.75;;
9830;SDS011;4954;48.476;8.168;2024-03-22T08:48:18;62.88;;;55.85;;
9830;SDS011;4954;48.476;8.168;2024-03-22T08:50:44;67.50;;;59.22;;
9830;SDS011;4954;48.476;8.168;2024-03-22T08:53:09;65.40;;;57.67;;
9830;SDS011;4954;48.476;8.168;2024-03-22T08:55:35;61.20;;;54.92;;
9830;SDS011;4954;48.476;8.168;2024-03-22T08:58:00;64.28;;;57.90;;
9830;SDS011;4954;48.476;8.168;2024-03-22T09:00:26;65.38;;;58.88;;
9830;SDS011;4954;48.476;8.168;2024-03-22T09:02:52;66.55;;;59.58;;
9830;SDS011;4954;48.476;8.168;2024-03-22T09:05:17;65.97;;;59.13;;
9830;SDS011;4954;48.476;8.168;2024-03-22T09:07:43;74.20;;;63.78;;
9830;SDS011;4954;48.476;8.168;2024-03-22T09:10:09;73.32;;;65.60;;
9830;SDS011;4954;48.476;8.168;2024-03-22T09:12:36;72.72;;;65.65;;
9830;SDS011;4954;48.476;8.168;2024-03-22T09:15:02;70.85;;;63.33;;
9830;SDS011;4954;48.476;8.168;2024-03-22T09:17:28;68.90;;;62.03;;
9830;SDS011;4954;48.476;8.168;2024-03-22T09:19:54;63.97;;;57.80;;
9830;SDS011;4954;48.476;8.168;2024-03-22T09:22:19;69.93;;;62.08;;
9830;SDS011;4954;48.476;8.168;2024-03-22T09:24:45;73.90;;;62.13;;
9830;SDS011;4954;48.476;8.168;2024-03-22T09:27:10;76.63;;;65.30;;
9830;SDS011;4954;48.476;8.168;2024-03-22T09:29:37;71.82;;;63.95;;
9830;SDS011;4954;48.476;8.168;2024-03-22T09:32:04;64.75;;;58.38;;
9830;SDS011;4954;48.476;8.168;2024-03-22T09:34:30;67.90;;;60.80;;
9830;SDS011;4954;48.476;8.168;2024-03-22T09:36:56;69.15;;;62.05;;
9830;SDS011;4954;48.476;8.168;2024-03-22T09:39:22;68.13;;;60.97;;
9830;SDS011;4954;48.476;8.168;2024-03-22T09:41:48;67.97;;;59.45;;
9830;SDS011;4954;48.476;8.168;2024-03-22T09:44:18;72.28;;;60.85;;
9830;SDS011;4954;48.476;8.168;2024-03-22T09:46:47;74.55;;;60.65;;
9830;SDS011;4954;48.476;8.168;2024-03-22T09:49:16;70.85;;;58.30;;
9830;SDS011;4954;48.476;8.168;2024-03-22T09:51:42;71.72;;;58.63;;
9830;SDS011;4954;48.476;8.168;2024-03-22T09:54:09;68.20;;;57.50;;
9830;SDS011;4954;48.476;8.168;2024-03-22T09:56:37;63.92;;;55.70;;
9830;SDS011;4954;48.476;8.168;2024-03-22T09:59:05;66.95;;;57.33;;
9830;SDS011;4954;48.476;8.168;2024-03-22T10:01:32;65.10;;;55.92;;
9830;SDS011;4954;48.476;8.168;2024-03-22T10:04:00;60.40;;;53.92;;
9830;SDS011;4954;48.476;8.168;2024-03-22T10:06:26;58.83;;;53.00;;
9830;SDS011;4954;48.476;8.168;2024-03-22T10:08:51;65.57;;;57.38;;
9830;SDS011;4954;48.476;8.168;2024-03-22T10:11:17;64.50;;;55.42;;
9830;SDS011;4954;48.476;8.168;2024-03-22T10:13:43;66.88;;;56.03;;
9830;SDS011;4954;48.476;8.168;2024-03-22T10:16:10;68.68;;;56.05;;
9830;SDS011;4954;48.476;8.168;2024-03-22T10:18:35;77.28;;;59.30;;
9830;SDS011;4954;48.476;8.168;2024-03-22T10:21:01;57.08;;;51.22;;
9830;SDS011;4954;48.476;8.168;2024-03-22T10:23:29;65.45;;;55.00;;
9830;SDS011;4954;48.476;8.168;2024-03-22T10:25:58;64.50;;;54.60;;
9830;SDS011;4954;48.476;8.168;2024-03-22T10:28:25;74.93;;;56.10;;
9830;SDS011;4954;48.476;8.168;2024-03-22T10:30:52;73.05;;;55.97;;
9830;SDS011;4954;48.476;8.168;2024-03-22T10:33:18;64.72;;;54.95;;
9830;SDS011;4954;48.476;8.168;2024-03-22T10:35:47;65.20;;;54.33;;
9830;SDS011;4954;48.476;8.168;2024-03-22T10:38:21;70.80;;;52.80;;
9830;SDS011;4954;48.476;8.168;2024-03-22T10:40:47;78.88;;;55.08;;
9830;SDS011;4954;48.476;8.168;2024-03-22T10:43:14;77.55;;;54.05;;
9830;SDS011;4954;48.476;8.168;2024-03-22T10:45:41;100.05;;;62.15;;
9830;SDS011;4954;48.476;8.168;2024-03-22T10:48:11;81.00;;;56.10;;
9830;SDS011;4954;48.476;8.168;2024-03-22T10:50:41;76.50;;;66.60;;
9830;SDS011;4954;48.476;8.168;2024-03-22T10:53:08;80.97;;;56.78;;
9830;SDS011;4954;48.476;8.168;2024-03-22T10:55:44;64.07;;;51.30;;
9830;SDS011;4954;48.476;8.168;2024-03-22T10:58:21;70.43;;;56.30;;
9830;SDS011;4954;48.476;8.168;2024-03-22T11:00:50;64.70;;;54.25;;
9830;SDS011;4954;48.476;8.168;2024-03-22T11:03:21;69.32;;;55.17;;
9830;SDS011;4954;48.476;8.168;2024-03-22T11:05:50;65.10;;;55.28;;
9830;SDS011;4954;48.476;8.168;2024-03-22T11:08:24;68.35;;;59.78;;
9830;SDS011;4954;48.476;8.168;2024-03-22T11:10:58;59.92;;;52.10;;
9830;SDS011;4954;48.476;8.168;2024-03-22T11:13:36;77.85;;;56.33;;
9830;SDS011;4954;48.476;8.168;2024-03-22T11:16:04;64.13;;;54.40;;
9830;SDS011;4954;48.476;8.168;2024-03-22T11:18:30;61.40;;;53.33;;
9830;SDS011;4954;48.476;8.168;2024-03-22T11:20:56;73.15;;;58.85;;
9830;SDS011;4954;48.476;8.168;2024-03-22T11:23:22;70.22;;;62.25;;
9830;SDS011;4954;48.476;8.168;2024-03-22T11:25:48;95.35;;;67.07;;
9830;SDS011;4954;48.476;8.168;2024-03-22T11:28:13;67.80;;;58.72;;
9830;SDS011;4954;48.476;8.168;2024-03-22T11:30:39;66.45;;;57.80;;
9830;SDS011;4954;48.476;8.168;2024-03-22T11:33:05;62.97;;;55.25;;
9830;SDS011;4954;48.476;8.168;2024-03-22T11:35:31;64.72;;;56.65;;
9830;SDS011;4954;48.476;8.168;2024-03-22T11:37:57;65.53;;;58.15;;
9830;SDS011;4954;48.476;8.168;2024-03-22T11:40:23;61.97;;;55.22;;
9830;SDS011;4954;48.476;8.168;2024-03-22T11:42:51;73.07;;;59.67;;
9830;SDS011;4954;48.476;8.168;2024-03-22T11:45:20;63.88;;;54.88;;
9830;SDS011;4954;48.476;8.168;2024-03-22T11:47:47;67.18;;;55.90;;
9830;SDS011;4954;48.476;8.168;2024-03-22T11:50:13;61.30;;;54.58;;
9830;SDS011;4954;48.476;8.168;2024-03-22T11:52:43;60.50;;;53.97;;
9830;SDS011;4954;48.476;8.168;2024-03-22T11:55:12;68.60;;;54.65;;
9830;SDS011;4954;48.476;8.168;2024-03-22T11:57:39;67.93;;;53.67;;
9830;SDS011;4954;48.476;8.168;2024-03-22T12:00:05;66.45;;;54.60;;
9830;SDS011;4954;48.476;8.168;2024-03-22T12:02:35;63.80;;;52.83;;
9830;SDS011;4954;48.476;8.168;2024-03-22T12:05:01;60.28;;;51.40;;
9830;SDS011;4954;48.476;8.168;2024-03-22T12:07:28;61.33;;;51.28;;
9830;SDS011;4954;48.476;8.168;2024-03-22T12:09:54;65.15;;;51.47;;
9830;SDS011;4954;48.476;8.168;2024-03-22T12:12:21;83.95;;;56.05;;
9830;SDS011;4954;48.476;8.168;2024-03-22T12:14:47;64.88;;;52.03;;
9830;SDS011;4954;48.476;8.168;2024-03-22T12:17:15;63.10;;;51.47;;
9830;SDS011;4954;48.476;8.168;2024-03-22T12:19:41;74.03;;;54.95;;
9830;SDS011;4954;48.476;8.168;2024-03-22T12:22:06;61.88;;;52.00;;
9830;SDS011;4954;48.476;8.168;2024-03-22T12:24:32;69.80;;;52.47;;
9830;SDS011;4954;48.476;8.168;2024-03-22T12:26:58;66.03;;;52.30;;
9830;SDS011;4954;48.476;8.168;2024-03-22T12:29:24;63.88;;;50.20;;
9830;SDS011;4954;48.476;8.168;2024-03-22T12:31:49;59.03;;;49.70;;
9830;SDS011;4954;48.476;8.168;2024-03-22T12:34:16;65.10;;;50.28;;
9830;SDS011;4954;48.476;8.168;2024-03-22T12:36:42;56.38;;;49.03;;
9830;SDS011;4954;48.476;8.168;2024-03-22T12:39:08;65.75;;;51.25;;
9830;SDS011;4954;48.476;8.168;2024-03-22T12:41:34;58.90;;;48.05;;
9830;SDS011;4954;48.476;8.168;2024-03-22T12:44:00;77.05;;;53.53;;
9830;SDS011;4954;48.476;8.168;2024-03-22T12:46:26;67.07;;;50.25;;
9830;SDS011;4954;48.476;8.168;2024-03-22T12:48:55;64.68;;;50.05;;
9830;SDS011;4954;48.476;8.168;2024-03-22T12:51:20;62.65;;;50.10;;
9830;SDS011;4954;48.476;8.168;2024-03-22T12:53:46;86.97;;;60.90;;
9830;SDS011;4954;48.476;8.168;2024-03-22T12:56:12;81.00;;;53.95;;
9830;SDS011;4954;48.476;8.168;2024-03-22T12:58:38;61.53;;;49.63;;
9830;SDS011;4954;48.476;8.168;2024-03-22T13:01:04;62.30;;;47.40;;
9830;SDS011;4954;48.476;8.168;2024-03-22T13:03:34;66.90;;;49.65;;
9830;SDS011;4954;48.476;8.168;2024-03-22T13:05:59;62.28;;;47.55;;
9830;SDS011;4954;48.476;8.168;2024-03-22T13:08:25;63.33;;;48.65;;
9830;SDS011;4954;48.476;8.168;2024-03-22T13:10:51;62.20;;;47.38;;
9830;SDS011;4954;48.476;8.168;2024-03-22T13:13:17;64.70;;;48.03;;
9830;SDS011;4954;48.476;8.168;2024-03-22T13:15:43;75.05;;;52.65;;
9830;SDS011;4954;48.476;8.168;2024-03-22T13:18:08;60.67;;;48.97;;
9830;SDS011;4954;48.476;8.168;2024-03-22T13:20:37;61.88;;;48.92;;
9830;SDS011;4954;48.476;8.168;2024-03-22T13:23:02;64.45;;;48.67;;
9830;SDS011;4954;48.476;8.168;2024-03-22T13:25:29;77.55;;;53.70;;
9830;SDS011;4954;48.476;8.168;2024-03-22T13:27:55;67.53;;;50.38;;
9830;SDS011;4954;48.476;8.168;2024-03-22T13:30:20;59.05;;;49.10;;
9830;SDS011;4954;48.476;8.168;2024-03-22T13:32:46;73.95;;;54.45;;
9830;SDS011;4954;48.476;8.168;2024-03-22T13:35:12;66.10;;;51.28;;
9830;SDS011;4954;48.476;8.168;2024-03-22T13:37:40;72.70;;;52.30;;
9830;SDS011;4954;48.476;8.168;2024-03-22T13:40:06;69.93;;;51.47;;
9830;SDS011;4954;48.476;8.168;2024-03-22T13:42:33;97.20;;;58.03;;
9830;SDS011;4954;48.476;8.168;2024-03-22T13:44:59;88.68;;;56.20;;
9830;SDS011;4954;48.476;8.168;2024-03-22T13:47:24;77.95;;;53.08;;
9830;SDS011;4954;48.476;8.168;2024-03-22T13:49:53;59.35;;;48.88;;
9830;SDS011;4954;48.476;8.168;2024-03-22T13:52:18;59.42;;;47.45;;
9830;SDS011;4954;48.476;8.168;2024-03-22T13:54:45;72.10;;;52.78;;
9830;SDS011;4954;48.476;8.168;2024-03-22T13:57:11;62.22;;;48.35;;
9830;SDS011;4954;48.476;8.168;2024-03-22T13:59:37;81.88;;;53.22;;
9830;SDS011;4954;48.476;8.168;2024-03-22T14:02:05;68.80;;;51.53;;
9830;SDS011;4954;48.476;8.168;2024-03-22T14:04:32;72.05;;;50.70;;
9830;SDS011;4954;48.476;8.168;2024-03-22T14:06:58;64.85;;;49.35;;
9830;SDS011;4954;48.476;8.168;2024-03-22T14:09:23;61.00;;;48.90;;
9830;SDS011;4954;48.476;8.168;2024-03-22T14:11:51;59.22;;;47.42;;
9830;SDS011;4954;48.476;8.168;2024-03-22T14:14:16;60.08;;;47.42;;
9830;SDS011;4954;48.476;8.168;2024-03-22T14:16:42;91.18;;;55.92;;
9830;SDS011;4954;48.476;8.168;2024-03-22T14:19:07;71.53;;;51.03;;
9830;SDS011;4954;48.476;8.168;2024-03-22T14:21:33;61.28;;;48.35;;
9830;SDS011;4954;48.476;8.168;2024-03-22T14:23:59;62.83;;;48.92;;
9830;SDS011;4954;48.476;8.168;2024-03-22T14:26:25;63.42;;;48.40;;
9830;SDS011;4954;48.476;8.168;2024-03-22T14:28:51;64.97;;;48.58;;
9830;SDS011;4954;48.476;8.168;2024-03-22T14:31:17;63.65;;;49.50;;
9830;SDS011;4954;48.476;8.168;2024-03-22T14:33:44;62.17;;;48.30;;
9830;SDS011;4954;48.476;8.168;2024-03-22T14:36:10;65.10;;;48.60;;
9830;SDS011;4954;48.476;8.168;2024-03-22T14:38:38;75.30;;;52.47;;
9830;SDS011;4954;48.476;8.168;2024-03-22T14:41:03;62.42;;;48.97;;
9830;SDS011;4954;48.476;8.168;2024-03-22T14:43:29;67.18;;;49.58;;